Time;durP1;ratioP1;P1;durP2;ratioP2;P2;SDS_P1;SDS_P2;PMS_P1;PMS_P2;Temp;Humidity;BMP_temperature;BMP_pressure;BME280_temperature;BME280_humidity;BME280_pressure;Samples;Min_cycle;Max_cycle;Signal;HPM_P1;HPM_P2
2022/04/26 03:37:41;;;;;;;2.30;0.50;;;10.30;99.90;;;;;;5006196;28;20130;-73
2022/04/26 03:40:07;;;;;;;1.27;0.32;;;10.30;99.90;;;;;;5004265;28;20117;-73
2022/04/26 03:42:34;;;;;;;0.55;0.10;;;10.30;99.90;;;;;;4997805;28;20089;-74
2022/04/26 03:45:00;;;;;;;1.60;0.50;;;10.30;99.90;;;;;;5006271;28;20038;-74
2022/04/26 03:47:25;;;;;;;1.10;0.30;;;10.30;99.90;;;;;;5005061;28;20022;-73
2022/04/26 03:49:51;;;;;;;1.92;0.57;;;10.20;99.90;;;;;;4998670;28;20548;-74
2022/04/26 03:52:17;;;;;;;0.93;0.43;;;10.40;99.90;;;;;;4999160;28;20061;-73
2022/04/26 03:54:42;;;;;;;0.77;0.30;;;10.40;99.90;;;;;;4996602;28;20488;-74
2022/04/26 03:57:08;;;;;;;2.75;0.40;;;10.20;99.90;;;;;;5003317;28;20026;-73
2022/04/26 03:59:34;;;;;;;0.50;0.20;;;10.10;99.90;;;;;;5001109;28;20030;-74
2022/04/26 04:01:59;;;;;;;1.60;0.52;;;10.10;99.90;;;;;;4995105;28;20030;-74
2022/04/26 04:04:25;;;;;;;0.77;0.30;;;10.00;99.90;;;;;;4996385;28;20049;-73
2022/04/26 04:06:52;;;;;;;0.28;0.10;;;10.10;99.90;;;;;;5003160;28;20460;-73
2022/04/26 04:09:17;;;;;;;1.25;0.20;;;10.10;99.90;;;;;;5003908;28;20465;-73
2022/04/26 04:11:43;;;;;;;2.17;0.47;;;10.20;99.90;;;;;;4993700;28;20040;-73
2022/04/26 04:14:08;;;;;;;0.70;0.30;;;10.30;99.90;;;;;;5004972;28;20033;-74
2022/04/26 04:16:34;;;;;;;1.83;0.38;;;10.30;99.90;;;;;;4998521;28;20101;-73
2022/04/26 04:19:18;;;;;;;1.25;0.30;;;10.30;99.90;;;;;;4997133;28;20045;-74
2022/04/26 04:21:45;;;;;;;1.20;0.50;;;10.40;99.90;;;;;;4985372;28;20026;-73
2022/04/26 04:24:12;;;;;;;1.40;0.30;;;10.20;99.90;;;;;;4981168;28;20134;-73
2022/04/26 04:26:37;;;;;;;0.15;0.10;;;10.20;99.90;;;;;;4991463;28;20125;-73
2022/04/26 04:29:05;;;;;;;1.63;0.57;;;10.30;99.90;;;;;;4993957;28;20120;-73
2022/04/26 04:31:31;;;;;;;1.52;0.63;;;10.30;99.90;;;;;;5003574;28;20476;-74
2022/04/26 04:33:57;;;;;;;2.70;0.50;;;10.30;99.90;;;;;;4997219;28;20030;-73
2022/04/26 04:36:22;;;;;;;3.58;0.63;;;10.30;99.90;;;;;;5002217;28;20108;-73
2022/04/26 04:38:48;;;;;;;0.82;0.40;;;10.30;99.90;;;;;;4999060;28;20033;-73
2022/04/26 04:41:14;;;;;;;0.45;0.43;;;10.30;99.90;;;;;;5003810;28;20037;-73
2022/04/26 04:43:40;;;;;;;1.88;0.65;;;10.40;99.90;;;;;;4998398;28;20589;-73
2022/04/26 04:46:06;;;;;;;2.30;0.55;;;10.50;99.90;;;;;;4999208;28;20107;-74
2022/04/26 04:48:31;;;;;;;1.52;0.68;;;10.60;99.90;;;;;;4998071;28;20535;-73
2022/04/26 04:50:57;;;;;;;2.38;0.65;;;10.60;99.90;;;;;;4975591;28;20102;-74
2022/04/26 04:53:23;;;;;;;1.63;0.68;;;10.60;99.90;;;;;;4972593;28;20525;-74
2022/04/26 04:55:48;;;;;;;0.98;0.52;;;10.60;99.90;;;;;;4990323;28;20033;-73
2022/04/26 04:58:14;;;;;;;1.55;0.40;;;10.50;99.90;;;;;;4997736;28;20025;-73
2022/04/26 05:00:40;;;;;;;2.03;0.30;;;10.40;99.90;;;;;;5003957;28;20057;-74
2022/04/26 05:03:06;;;;;;;0.95;0.38;;;10.40;99.90;;;;;;4998607;28;20064;-73
2022/04/26 05:05:32;;;;;;;1.92;0.77;;;10.30;99.90;;;;;;5002316;28;20492;-73
2022/04/26 05:07:58;;;;;;;1.08;0.40;;;10.10;99.90;;;;;;4999030;28;20128;-74
2022/04/26 05:10:25;;;;;;;0.95;0.30;;;10.00;99.90;;;;;;4994508;28;20026;-74
2022/04/26 05:12:50;;;;;;;2.47;0.50;;;10.10;99.90;;;;;;4998499;28;20045;-74
2022/04/26 05:15:16;;;;;;;1.60;0.65;;;10.30;99.90;;;;;;4999501;28;20032;-74
2022/04/26 05:17:42;;;;;;;2.60;0.65;;;10.20;99.90;;;;;;5001756;28;20080;-74
2022/04/26 05:20:08;;;;;;;4.45;1.08;;;10.30;99.90;;;;;;4999028;28;20061;-74
2022/04/26 05:24:53;;;;;;;2.83;0.70;;;10.40;99.90;;;;;;4989929;28;20043;-74
2022/04/26 05:25:20;;;;;;;0.80;0.47;;;10.40;99.90;;;;;;5001741;28;20352;-73
2022/04/26 05:27:46;;;;;;;1.33;0.63;;;10.50;99.90;;;;;;5000262;28;20029;-73
2022/04/26 05:30:12;;;;;;;1.27;0.70;;;10.60;99.90;;;;;;5006597;28;20052;-75
2022/04/26 05:32:38;;;;;;;3.33;0.50;;;10.60;99.90;;;;;;5000171;28;20222;-74
2022/04/26 05:35:05;;;;;;;0.43;0.35;;;10.60;99.90;;;;;;4999305;28;20064;-74
2022/04/26 05:37:32;;;;;;;1.52;0.63;;;10.60;99.90;;;;;;4969810;28;20038;-74
2022/04/26 05:40:02;;;;;;;2.10;0.85;;;10.60;99.90;;;;;;4984707;28;20066;-75
2022/04/26 05:42:30;;;;;;;1.25;0.70;;;10.80;99.90;;;;;;4973993;28;20112;-74
2022/04/26 05:44:57;;;;;;;2.90;0.60;;;10.90;99.90;;;;;;4972654;28;20046;-74
2022/04/26 05:47:23;;;;;;;1.80;0.70;;;10.90;99.90;;;;;;4986867;28;20045;-75
2022/04/26 05:49:48;;;;;;;2.10;1.10;;;10.90;99.90;;;;;;4991163;28;20026;-74
2022/04/26 05:52:14;;;;;;;1.45;0.80;;;11.00;99.90;;;;;;5002316;28;20389;-74
2022/04/26 05:54:40;;;;;;;1.42;0.70;;;11.00;99.90;;;;;;5004498;28;20056;-73
2022/04/26 05:57:06;;;;;;;2.47;1.20;;;11.10;99.90;;;;;;4998033;28;20461;-72
2022/04/26 05:59:32;;;;;;;3.30;1.42;;;11.00;99.90;;;;;;4993888;28;20373;-73
2022/04/26 06:01:58;;;;;;;5.28;1.58;;;11.00;99.90;;;;;;5002745;28;20119;-72
2022/04/26 06:04:25;;;;;;;4.32;2.10;;;11.00;99.90;;;;;;5002488;28;20814;-72
2022/04/26 06:06:50;;;;;;;3.47;1.98;;;10.80;99.90;;;;;;5000676;28;20148;-72
2022/04/26 06:09:16;;;;;;;4.25;1.67;;;10.80;99.90;;;;;;4998933;28;20110;-72
2022/04/26 06:11:43;;;;;;;3.95;1.50;;;10.90;99.90;;;;;;5002368;28;20372;-72
2022/04/26 06:14:09;;;;;;;2.75;1.20;;;10.90;99.90;;;;;;5002911;28;20034;-72
2022/04/26 06:16:35;;;;;;;3.45;1.65;;;10.90;99.90;;;;;;4997237;28;20041;-72
2022/04/26 06:19:01;;;;;;;4.53;2.78;;;11.00;99.90;;;;;;5002114;28;20041;-72
2022/04/26 06:21:26;;;;;;;4.45;3.08;;;11.10;99.90;;;;;;5002656;28;20041;-72
2022/04/26 06:23:52;;;;;;;5.00;3.22;;;11.10;99.90;;;;;;5000884;28;20033;-73
2022/04/26 06:26:18;;;;;;;4.95;3.83;;;11.20;99.90;;;;;;5004619;28;20054;-72
2022/04/26 06:28:43;;;;;;;5.50;3.50;;;11.20;99.90;;;;;;5007052;28;20377;-72
2022/04/26 06:31:10;;;;;;;5.80;3.72;;;11.20;99.90;;;;;;5005149;28;20104;-72
2022/04/26 06:33:36;;;;;;;4.97;3.22;;;11.10;99.90;;;;;;4997083;28;20120;-72
2022/04/26 06:36:02;;;;;;;5.50;3.33;;;11.20;99.90;;;;;;5002843;28;20586;-72
2022/04/26 06:38:28;;;;;;;5.70;3.83;;;11.40;99.90;;;;;;5005398;28;20147;-72
2022/04/26 06:40:54;;;;;;;6.75;3.75;;;11.40;99.90;;;;;;5003895;28;20030;-73
2022/04/26 06:43:20;;;;;;;5.80;3.65;;;11.50;99.90;;;;;;5000932;28;20120;-73
2022/04/26 06:45:46;;;;;;;6.45;2.78;;;11.60;99.90;;;;;;4998521;28;20126;-74
2022/04/26 06:48:13;;;;;;;4.97;3.00;;;11.50;99.90;;;;;;4990838;28;20671;-73
2022/04/26 06:50:40;;;;;;;4.78;3.08;;;11.60;99.90;;;;;;4993412;28;20034;-73
2022/04/26 06:53:06;;;;;;;4.65;2.70;;;11.70;99.90;;;;;;5004503;28;20041;-73
2022/04/26 06:55:32;;;;;;;5.60;2.60;;;11.90;99.90;;;;;;4987493;28;20148;-73
2022/04/26 06:57:58;;;;;;;5.60;3.03;;;11.90;99.90;;;;;;4989990;28;20391;-73
2022/04/26 07:00:24;;;;;;;5.22;3.15;;;11.80;99.90;;;;;;4983357;28;20042;-73
2022/04/26 07:02:50;;;;;;;5.38;3.50;;;12.00;99.90;;;;;;4996274;28;21073;-73
2022/04/26 07:05:15;;;;;;;6.88;3.10;;;12.10;99.90;;;;;;4997630;28;20034;-74
2022/04/26 07:07:42;;;;;;;6.40;3.00;;;12.10;99.90;;;;;;4993865;28;20049;-74
2022/04/26 07:10:09;;;;;;;3.38;2.10;;;12.10;99.90;;;;;;4987920;28;20038;-73
2022/04/26 07:12:34;;;;;;;3.10;2.10;;;11.90;99.90;;;;;;4988738;28;20030;-74
2022/04/26 07:15:01;;;;;;;3.13;2.30;;;12.10;99.90;;;;;;4994502;28;20657;-73
2022/04/26 07:17:26;;;;;;;4.10;2.70;;;12.20;99.90;;;;;;4973903;28;20656;-73
2022/04/26 07:19:52;;;;;;;4.10;2.33;;;12.20;99.90;;;;;;4988297;28;20030;-73
2022/04/26 07:22:18;;;;;;;4.47;2.58;;;12.10;99.90;;;;;;4982872;28;20067;-72
2022/04/26 07:24:44;;;;;;;4.20;2.15;;;12.30;99.90;;;;;;5005226;28;20052;-73
2022/04/26 07:27:10;;;;;;;3.88;2.55;;;12.30;99.90;;;;;;4993805;28;20026;-73
2022/04/26 07:29:41;;;;;;;4.95;3.03;;;12.30;99.90;;;;;;5004648;28;20049;-72
2022/04/26 07:32:07;;;;;;;6.22;3.47;;;12.30;99.90;;;;;;5005336;28;20041;-73
2022/04/26 07:34:33;;;;;;;7.72;3.70;;;12.40;99.90;;;;;;5001636;28;20040;-71
2022/04/26 07:37:00;;;;;;;5.25;3.63;;;12.60;99.90;;;;;;5003985;28;20037;-72
2022/04/26 07:39:33;;;;;;;4.82;3.30;;;12.50;99.90;;;;;;5005102;28;20087;-71
2022/04/26 07:42:00;;;;;;;8.15;3.78;;;12.70;99.90;;;;;;5005847;28;20034;-72
2022/04/26 07:44:26;;;;;;;5.68;3.95;;;12.50;99.90;;;;;;5005194;28;20026;-72
2022/04/26 07:46:54;;;;;;;7.53;3.75;;;12.40;99.90;;;;;;5001625;28;20037;-74
2022/04/26 07:49:21;;;;;;;4.72;3.55;;;12.30;99.90;;;;;;5004152;28;20034;-72
2022/04/26 07:51:47;;;;;;;5.00;3.50;;;12.40;99.90;;;;;;5003409;28;20088;-73
2022/04/26 07:54:13;;;;;;;3.85;2.35;;;12.40;99.90;;;;;;5004877;28;20404;-72
2022/04/26 07:56:39;;;;;;;5.38;3.38;;;12.40;99.90;;;;;;5002560;28;20093;-72
2022/04/26 07:59:05;;;;;;;4.28;2.78;;;12.70;99.90;;;;;;5005143;28;20048;-72
2022/04/26 08:01:31;;;;;;;4.43;2.80;;;13.00;99.90;;;;;;4997953;28;20034;-72
2022/04/26 08:03:57;;;;;;;3.80;2.08;;;12.60;99.90;;;;;;5005385;28;20036;-72
2022/04/26 08:06:24;;;;;;;4.43;2.17;;;12.80;99.90;;;;;;5004871;28;20049;-75
2022/04/26 08:08:49;;;;;;;5.00;2.22;;;12.80;99.90;;;;;;5000122;28;20104;-71
2022/04/26 08:11:15;;;;;;;4.68;1.80;;;12.80;99.90;;;;;;5000991;28;20429;-73
2022/04/26 08:13:42;;;;;;;3.67;1.88;;;12.90;99.90;;;;;;5004949;28;20496;-73
2022/04/26 08:16:08;;;;;;;4.18;2.50;;;12.90;99.90;;;;;;5000493;28;20038;-73
2022/04/26 08:18:34;;;;;;;12.32;3.08;;;13.00;99.90;;;;;;5002410;28;20099;-71
2022/04/26 08:21:00;;;;;;;3.78;1.95;;;13.20;99.90;;;;;;5004618;28;20192;-72
2022/04/26 08:23:26;;;;;;;5.80;1.83;;;13.70;99.90;;;;;;5004883;28;20041;-72
2022/04/26 08:28:37;;;;;;;4.57;1.42;;;13.20;99.90;;;;;;5004272;28;20133;-72
2022/04/26 08:31:04;;;;;;;2.53;1.30;;;13.20;99.90;;;;;;5001989;28;20117;-71
2022/04/26 08:33:31;;;;;;;2.90;1.55;;;13.40;99.90;;;;;;4999778;28;20053;-71
2022/04/26 08:35:57;;;;;;;3.15;1.63;;;13.20;99.90;;;;;;5004405;28;20033;-72
2022/04/26 08:38:22;;;;;;;3.53;1.02;;;13.50;99.90;;;;;;5004215;28;20636;-71
2022/04/26 08:40:48;;;;;;;1.73;1.00;;;13.80;99.90;;;;;;5004736;28;20463;-71
2022/04/26 08:43:14;;;;;;;3.80;1.48;;;13.60;99.90;;;;;;4997272;28;20037;-71
2022/04/26 08:45:41;;;;;;;4.88;1.80;;;13.70;99.90;;;;;;4991304;28;20042;-71
2022/04/26 08:51:04;;;;;;;2.20;1.00;;;13.80;99.90;;;;;;4999070;28;20092;-74
2022/04/26 08:53:32;;;;;;;2.88;1.25;;;13.60;99.90;;;;;;5001968;28;20128;-74
2022/04/26 08:56:03;;;;;;;2.63;1.23;;;13.60;99.90;;;;;;5002060;28;20037;-75
2022/04/26 08:58:34;;;;;;;1.70;0.77;;;13.70;99.90;;;;;;5004152;28;20042;-72
2022/04/26 09:01:05;;;;;;;2.42;1.35;;;13.70;99.90;;;;;;4997983;28;20046;-73
2022/04/26 09:03:32;;;;;;;1.52;0.93;;;13.60;99.90;;;;;;5000618;28;20117;-73
2022/04/26 09:06:13;;;;;;;1.75;0.82;;;13.80;99.90;;;;;;5003697;28;20034;-73
2022/04/26 09:08:40;;;;;;;0.95;0.60;;;13.80;99.90;;;;;;5003555;28;20041;-74
2022/04/26 09:11:22;;;;;;;1.73;0.90;;;13.80;99.90;;;;;;5002129;28;20034;-73
2022/04/26 09:13:49;;;;;;;423.13;270.33;;;14.00;99.90;;;;;;4992000;28;20034;-73
2022/04/26 09:16:16;;;;;;;151.00;97.70;;;14.70;99.90;;;;;;4999482;28;20117;-73
2022/04/26 09:18:59;;;;;;;185.75;127.40;;;14.80;99.90;;;;;;4996060;28;20129;-73
2022/04/26 09:21:29;;;;;;;7.47;5.60;;;14.20;99.90;;;;;;4996539;28;20077;-73
2022/04/26 09:24:00;;;;;;;3.00;1.50;;;14.20;99.90;;;;;;5004163;28;20056;-73
2022/04/26 09:26:36;;;;;;;3.22;1.10;;;14.30;99.90;;;;;;5003500;28;20038;-73
2022/04/26 09:29:03;;;;;;;73.60;42.10;;;14.20;99.90;;;;;;5001542;28;20488;-73
2022/04/26 09:31:32;;;;;;;6.47;2.90;;;14.50;99.90;;;;;;5003344;28;20026;-73
2022/04/26 09:34:05;;;;;;;44.92;22.10;;;14.70;99.90;;;;;;4996558;28;20065;-73
2022/04/26 09:36:41;;;;;;;72.70;39.25;;;14.50;99.90;;;;;;5002942;28;20393;-73
2022/04/26 09:39:08;;;;;;;21.08;12.65;;;14.40;99.90;;;;;;4998467;28;20053;-73
2022/04/26 09:41:35;;;;;;;9.13;5.05;;;14.80;99.90;;;;;;5000674;28;20120;-73
2022/04/26 09:44:06;;;;;;;33.10;16.60;;;14.80;99.90;;;;;;4999384;28;20121;-73
2022/04/26 09:46:41;;;;;;;5.28;2.28;;;15.10;99.90;;;;;;4994456;28;20093;-73
2022/04/26 09:49:10;;;;;;;4.97;1.52;;;15.50;99.90;;;;;;5001263;28;20100;-73
2022/04/26 09:51:37;;;;;;;5.15;1.60;;;14.90;99.90;;;;;;4992750;28;20048;-73
2022/04/26 09:54:07;;;;;;;2.47;1.30;;;14.80;99.90;;;;;;4987827;28;20030;-73
2022/04/26 09:56:33;;;;;;;7.13;3.45;;;14.90;99.90;;;;;;4985046;28;20036;-73
2022/04/26 09:59:03;;;;;;;6.13;3.75;;;14.80;99.90;;;;;;5002923;28;20037;-73
2022/04/26 10:01:40;;;;;;;2.88;1.67;;;15.00;99.90;;;;;;5007011;28;20495;-73
2022/04/26 10:04:08;;;;;;;4.80;2.42;;;14.90;99.90;;;;;;5007991;28;20492;-73
2022/04/26 10:06:38;;;;;;;6.63;3.63;;;15.00;99.90;;;;;;5006950;28;20050;-73
2022/04/26 10:09:06;;;;;;;3.58;1.77;;;15.30;99.90;;;;;;5001404;28;20044;-73
2022/04/26 10:11:33;;;;;;;4.20;2.10;;;15.40;99.90;;;;;;5007125;28;20056;-73
2022/04/26 10:14:02;;;;;;;3.80;1.88;;;15.50;99.90;;;;;;5007445;28;20081;-73
2022/04/26 10:16:28;;;;;;;75.13;40.25;;;15.60;99.90;;;;;;5006868;28;20513;-73
2022/04/26 10:19:12;;;;;;;19.02;12.05;;;15.30;99.90;;;;;;5004299;28;20078;-73
2022/04/26 10:21:38;;;;;;;3.50;1.88;;;15.40;99.90;;;;;;5005905;28;20539;-73
2022/04/26 10:24:18;;;;;;;4.90;1.50;;;15.30;99.90;;;;;;5004518;28;20092;-73
2022/04/26 10:26:45;;;;;;;5.72;3.45;;;15.20;99.90;;;;;;4998012;28;20352;-73
2022/04/26 10:29:19;;;;;;;3.58;2.05;;;15.40;99.90;;;;;;5001348;28;20034;-73
2022/04/26 10:31:48;;;;;;;3.60;1.38;;;15.50;99.90;;;;;;5003508;28;20054;-73
2022/04/26 10:34:16;;;;;;;4.15;1.40;;;15.60;99.90;;;;;;5007237;28;20041;-73
2022/04/26 10:36:44;;;;;;;5.10;2.55;;;15.30;99.90;;;;;;5005169;28;20121;-73
2022/04/26 10:39:09;;;;;;;4.85;2.67;;;15.60;99.90;;;;;;5010118;28;20038;-73
2022/04/26 10:41:42;;;;;;;4.40;2.42;;;15.80;99.90;;;;;;5007315;28;20030;-73
2022/04/26 10:44:32;;;;;;;6.85;2.83;;;15.90;99.90;;;;;;5002354;28;20104;-73
2022/04/26 10:47:03;;;;;;;1.65;0.70;;;16.00;99.90;;;;;;5001478;28;20062;-73
2022/04/26 10:49:32;;;;;;;2.47;0.90;;;15.80;99.90;;;;;;5008958;28;20474;-73
2022/04/26 10:52:18;;;;;;;1.60;0.65;;;15.80;99.90;;;;;;5009745;28;20111;-73
2022/04/26 10:54:58;;;;;;;1.48;0.90;;;15.80;99.90;;;;;;5006606;28;20045;-73
2022/04/26 10:57:26;;;;;;;1.48;0.70;;;15.60;99.90;;;;;;5009965;28;20033;-73
2022/04/26 10:59:57;;;;;;;1.40;0.65;;;15.40;99.90;;;;;;5002571;28;20034;-73
2022/04/26 11:02:25;;;;;;;2.00;1.17;;;15.50;99.90;;;;;;5005659;28;20041;-73
2022/04/26 11:04:59;;;;;;;4.07;1.63;;;15.60;99.70;;;;;;5004710;28;20120;-73
2022/04/26 11:07:28;;;;;;;;;;;15.50;99.90;;;;;;5009184;28;20159;-73
2022/04/26 11:09:56;;;;;;;3.28;1.55;;;15.60;99.90;;;;;;5007431;28;19909;-73
2022/04/26 11:12:24;;;;;;;2.75;1.40;;;15.70;99.90;;;;;;5007838;28;20369;-73
2022/04/26 11:14:53;;;;;;;2.92;1.20;;;15.50;99.90;;;;;;5007718;28;20061;-74
2022/04/26 11:17:22;;;;;;;4.18;2.20;;;15.40;99.90;;;;;;5008688;28;20172;-75
2022/04/26 11:19:58;;;;;;;3.90;1.60;;;15.00;99.90;;;;;;5008212;28;20045;-75
2022/04/26 11:22:25;;;;;;;5.25;2.10;;;14.90;99.90;;;;;;4999891;28;20041;-74
2022/04/26 11:28:00;;;;;;;5.93;3.30;;;14.60;99.90;;;;;;5008641;28;20337;-73
2022/04/26 11:30:37;;;;;;;4.97;1.70;;;14.70;99.90;;;;;;5007484;28;20072;-73
2022/04/26 11:33:09;;;;;;;2.63;1.42;;;14.80;99.90;;;;;;5002050;28;20061;-74
2022/04/26 11:35:39;;;;;;;5.40;3.28;;;14.80;99.90;;;;;;5008489;28;20647;-73
2022/04/26 11:38:10;;;;;;;5.63;3.13;;;14.80;99.90;;;;;;5008433;28;20045;-73
2022/04/26 11:40:38;;;;;;;5.38;1.83;;;14.90;99.90;;;;;;5007379;28;20030;-73
2022/04/26 11:43:12;;;;;;;4.45;2.00;;;14.90;99.90;;;;;;5006277;28;20042;-73
2022/04/26 11:45:39;;;;;;;;;;;15.00;99.90;;;;;;5000478;28;20042;-73
2022/04/26 11:48:10;;;;;;;2.40;1.20;;;15.10;99.90;;;;;;5005862;28;19913;-73
2022/04/26 11:50:36;;;;;;;2.17;1.20;;;15.20;99.90;;;;;;5004376;28;20034;-73
2022/04/26 11:53:17;;;;;;;3.00;1.20;;;15.30;99.90;;;;;;5006754;28;20049;-73
2022/04/26 11:55:53;;;;;;;3.70;0.90;;;15.40;99.90;;;;;;5008424;28;20045;-73
2022/04/26 11:58:32;;;;;;;2.75;1.35;;;15.60;99.90;;;;;;5006306;28;20034;-73
2022/04/26 12:01:06;;;;;;;25.00;20.15;;;15.40;99.90;;;;;;5008235;28;20038;-73
2022/04/26 12:03:44;;;;;;;34.95;23.70;;;14.90;99.90;;;;;;5007976;28;20038;-72
2022/04/26 12:06:11;;;;;;;27.73;18.70;;;15.20;99.90;;;;;;5005950;28;20054;-73
2022/04/26 12:08:41;;;;;;;11.23;6.80;;;15.00;99.90;;;;;;5006468;28;20411;-73
2022/04/26 12:11:17;;;;;;;3.75;2.40;;;15.00;99.90;;;;;;5007946;28;20021;-73
2022/04/26 12:13:43;;;;;;;4.38;1.52;;;14.90;99.90;;;;;;5007581;28;20605;-73
2022/04/26 12:16:16;;;;;;;13.05;8.73;;;14.70;99.90;;;;;;5007811;28;20538;-73
2022/04/26 12:18:52;;;;;;;7.07;3.58;;;14.60;99.90;;;;;;5005693;28;20065;-74
2022/04/26 12:21:17;;;;;;;3.85;2.28;;;14.40;99.90;;;;;;5006654;28;20029;-73
2022/04/26 12:23:44;;;;;;;5.10;2.95;;;14.50;99.90;;;;;;5004220;28;20095;-73
2022/04/26 12:26:10;;;;;;;4.15;1.98;;;14.40;99.90;;;;;;5007230;28;20496;-73
2022/04/26 12:28:50;;;;;;;6.45;2.28;;;14.40;99.90;;;;;;5006234;28;20038;-73
2022/04/26 12:31:25;;;;;;;3.38;1.52;;;14.20;99.90;;;;;;5005462;28;20041;-73
2022/04/26 12:34:13;;;;;;;4.30;1.40;;;14.10;99.90;;;;;;5006798;28;20038;-73
2022/04/26 12:36:58;;;;;;;3.42;1.60;;;14.00;99.90;;;;;;5006487;28;20044;-73
2022/04/26 12:39:38;;;;;;;9.93;5.05;;;14.10;99.90;;;;;;5007543;28;20039;-73
2022/04/26 12:42:04;;;;;;;3.38;1.88;;;14.00;99.90;;;;;;4993310;28;20030;-73
2022/04/26 12:44:30;;;;;;;4.35;2.47;;;14.00;99.90;;;;;;4997409;28;20038;-73
2022/04/26 12:52:42;;;;;;;4.03;2.33;;;13.90;99.90;;;;;;5006085;28;20100;-73
2022/04/26 12:55:08;;;;;;;6.47;2.20;;;14.00;99.90;;;;;;5007575;28;20026;-73
2022/04/26 12:57:50;;;;;;;8.88;5.22;;;14.20;99.90;;;;;;5000725;28;20088;-73
2022/04/26 13:00:19;;;;;;;7.38;4.05;;;14.20;99.90;;;;;;5007189;28;20046;-74
2022/04/26 13:02:52;;;;;;;4.70;1.63;;;14.20;99.90;;;;;;5004755;28;20488;-73
2022/04/26 13:05:19;;;;;;;4.63;1.77;;;14.20;99.90;;;;;;5007196;28;20657;-74
2022/04/26 13:07:46;;;;;;;3.40;1.80;;;14.20;99.90;;;;;;5004843;28;20144;-73
2022/04/26 13:10:13;;;;;;;3.42;1.70;;;14.20;99.90;;;;;;5001419;28;20053;-73
2022/04/26 13:12:38;;;;;;;2.90;1.77;;;14.20;99.90;;;;;;5001654;28;20046;-74
2022/04/26 13:15:08;;;;;;;4.38;2.53;;;14.20;99.90;;;;;;5002659;28;20396;-73
2022/04/26 13:17:34;;;;;;;8.57;4.55;;;14.40;99.90;;;;;;5007287;28;20034;-73
2022/04/26 13:20:00;;;;;;;3.95;1.33;;;14.50;99.90;;;;;;5007299;28;20067;-73
2022/04/26 13:22:26;;;;;;;4.10;1.90;;;14.60;99.90;;;;;;5000912;28;20395;-74
2022/04/26 13:24:52;;;;;;;3.22;1.92;;;14.80;99.90;;;;;;5006471;28;20056;-73
2022/04/26 13:27:18;;;;;;;5.55;2.47;;;14.60;99.90;;;;;;5007418;28;20061;-73
2022/04/26 13:29:44;;;;;;;5.38;2.10;;;14.70;99.90;;;;;;5001251;28;20076;-74
2022/04/26 13:32:10;;;;;;;4.80;2.72;;;14.80;99.90;;;;;;4996276;28;20068;-73
2022/04/26 13:34:36;;;;;;;4.03;2.20;;;14.50;99.90;;;;;;5011698;28;20094;-73
2022/04/26 13:37:02;;;;;;;7.38;3.10;;;14.40;99.90;;;;;;5012880;28;20136;-73
2022/04/26 13:39:27;;;;;;;6.80;3.50;;;14.20;99.90;;;;;;5010531;28;20030;-74
2022/04/26 13:41:53;;;;;;;5.82;2.22;;;14.40;99.90;;;;;;5006595;28;20050;-73
2022/04/26 13:44:20;;;;;;;5.25;2.58;;;14.30;99.90;;;;;;5004813;28;20030;-73
2022/04/26 13:46:46;;;;;;;6.90;3.05;;;14.60;99.90;;;;;;5008778;28;20045;-73
2022/04/26 13:49:12;;;;;;;5.82;2.85;;;14.80;99.90;;;;;;5009599;28;20026;-74
2022/04/26 13:51:38;;;;;;;14.90;7.35;;;15.20;99.90;;;;;;5012915;28;20460;-73
2022/04/26 13:54:04;;;;;;;8.75;4.93;;;14.90;99.90;;;;;;5013448;28;20041;-74
2022/04/26 13:56:30;;;;;;;7.78;3.90;;;14.80;99.90;;;;;;5011567;28;20769;-74
2022/04/26 13:58:56;;;;;;;4.90;2.22;;;14.80;99.90;;;;;;5005235;28;20054;-74
2022/04/26 14:01:23;;;;;;;3.08;1.42;;;14.40;99.90;;;;;;5011582;28;20081;-74
2022/04/26 14:03:49;;;;;;;8.45;4.93;;;14.30;99.90;;;;;;5012904;28;20069;-74
2022/04/26 14:06:21;;;;;;;6.07;2.55;;;14.60;99.90;;;;;;5003880;28;20144;-74
2022/04/26 14:08:51;;;;;;;4.97;1.88;;;14.90;99.90;;;;;;5011048;28;20034;-74
2022/04/26 14:11:17;;;;;;;4.00;1.88;;;14.90;99.90;;;;;;5012629;28;20485;-74
2022/04/26 14:21:57;;;;;;;8.77;3.97;;;14.60;99.90;;;;;;5011375;28;20061;-74
2022/04/26 14:24:22;;;;;;;7.00;3.55;;;14.60;99.90;;;;;;5008253;28;20064;-73
2022/04/26 14:26:49;;;;;;;5.63;2.72;;;14.80;99.90;;;;;;5011299;28;20607;-75
2022/04/26 14:29:15;;;;;;;2.88;1.20;;;14.80;99.90;;;;;;5012272;28;20046;-75
2022/04/26 14:31:41;;;;;;;6.25;3.17;;;14.60;99.90;;;;;;5011627;28;20030;-75
2022/04/26 14:34:08;;;;;;;1.88;0.73;;;14.80;99.90;;;;;;5010116;28;20064;-73
2022/04/26 14:36:34;;;;;;;1.50;0.77;;;14.80;99.90;;;;;;5012015;28;20484;-74
2022/04/26 14:39:00;;;;;;;3.03;1.30;;;14.70;99.90;;;;;;5010410;28;20056;-75
2022/04/26 14:41:26;;;;;;;3.13;1.35;;;14.70;99.90;;;;;;5006256;28;20069;-73
2022/04/26 14:43:53;;;;;;;1.95;1.00;;;15.10;99.90;;;;;;5010132;28;20026;-74
2022/04/26 14:46:19;;;;;;;3.75;1.40;;;15.60;99.90;;;;;;5007193;28;20053;-73
2022/04/26 14:48:44;;;;;;;3.13;1.05;;;16.10;99.90;;;;;;5009746;28;20030;-74
2022/04/26 14:51:13;;;;;;;1.73;0.77;;;16.60;99.90;;;;;;5009723;28;20038;-74
2022/04/26 14:53:39;;;;;;;1.88;0.80;;;16.80;99.90;;;;;;5007805;28;20045;-76
2022/04/26 14:56:07;;;;;;;1.60;0.80;;;17.00;99.90;;;;;;5007531;28;20034;-75
2022/04/26 14:58:34;;;;;;;1.13;0.77;;;17.00;99.40;;;;;;5009700;28;20116;-75
2022/04/26 15:01:00;;;;;;;1.33;0.63;;;17.10;99.60;;;;;;5009688;28;20045;-75
2022/04/26 15:03:27;;;;;;;1.40;0.60;;;17.10;99.00;;;;;;5008119;28;20037;-75
2022/04/26 15:05:53;;;;;;;3.47;0.70;;;16.90;97.00;;;;;;5007162;28;20117;-75
2022/04/26 15:11:03;;;;;;;2.08;1.05;;;17.10;97.20;;;;;;5007908;28;20145;-75
2022/04/26 15:18:57;;;;;;;1.48;0.70;;;16.70;98.30;;;;;;5008912;28;19916;-75
2022/04/26 15:21:24;;;;;;;1.63;0.82;;;16.70;98.80;;;;;;5008311;28;20046;-75
2022/04/26 15:23:50;;;;;;;2.05;1.00;;;16.60;98.90;;;;;;5007255;28;20042;-75
2022/04/26 15:26:16;;;;;;;3.22;0.88;;;16.90;98.60;;;;;;5008506;28;20030;-75
2022/04/26 15:28:42;;;;;;;1.52;0.85;;;17.10;98.00;;;;;;5007537;28;20072;-75
2022/04/26 15:31:07;;;;;;;1.65;0.77;;;16.80;97.50;;;;;;4999596;28;20461;-75
2022/04/26 15:33:34;;;;;;;3.10;0.80;;;16.50;97.90;;;;;;5001678;28;20045;-75
2022/04/26 15:35:59;;;;;;;1.65;0.70;;;16.80;97.70;;;;;;5008722;28;20030;-75
2022/04/26 15:38:27;;;;;;;2.08;0.93;;;16.80;97.80;;;;;;5008599;28;20037;-75
2022/04/26 15:40:54;;;;;;;2.35;0.90;;;16.80;97.70;;;;;;5000455;28;20031;-75
2022/04/26 15:43:20;;;;;;;2.35;0.80;;;16.70;97.70;;;;;;4998575;28;20041;-75
2022/04/26 15:45:46;;;;;;;1.35;0.70;;;16.50;97.00;;;;;;5006235;28;20156;-75
2022/04/26 15:48:12;;;;;;;3.20;1.48;;;16.30;97.60;;;;;;5001783;28;20113;-75
2022/04/26 15:50:40;;;;;;;4.47;1.48;;;16.10;99.90;;;;;;5008610;28;20030;-75
2022/04/26 15:53:05;;;;;;;3.78;1.60;;;15.80;99.90;;;;;;5006304;28;20528;-75
2022/04/26 15:55:31;;;;;;;3.42;1.60;;;15.90;99.90;;;;;;5007794;28;20045;-75
2022/04/26 15:57:57;;;;;;;3.42;1.45;;;15.70;99.90;;;;;;5008141;28;20045;-75
2022/04/26 16:00:23;;;;;;;8.55;1.80;;;15.70;99.90;;;;;;5008025;28;20084;-75
2022/04/26 16:02:51;;;;;;;3.20;1.38;;;15.70;99.90;;;;;;5003605;28;20022;-75
2022/04/26 16:05:17;;;;;;;5.30;1.42;;;15.70;99.90;;;;;;5004762;28;20105;-75
2022/04/26 16:07:43;;;;;;;4.43;1.52;;;15.70;99.90;;;;;;5007577;28;20050;-75
2022/04/26 16:21:06;;;;;;;2.33;1.38;;;15.30;99.90;;;;;;5006556;28;20049;-75
2022/04/26 16:23:32;;;;;;;2.95;1.25;;;15.20;99.90;;;;;;5001989;28;20038;-75
2022/04/26 16:26:02;;;;;;;3.80;1.65;;;15.10;99.90;;;;;;5007828;28;20077;-75
2022/04/26 16:28:31;;;;;;;3.90;1.67;;;15.00;99.90;;;;;;5007715;28;20029;-75
2022/04/26 16:30:57;;;;;;;3.10;1.45;;;14.90;99.90;;;;;;5007272;28;20058;-75
2022/04/26 16:33:23;;;;;;;5.28;1.30;;;14.80;99.90;;;;;;5005783;28;20060;-75
2022/04/26 16:35:49;;;;;;;7.88;1.50;;;14.90;99.90;;;;;;5007525;28;20049;-75
2022/04/26 16:38:17;;;;;;;2.40;1.40;;;15.30;99.90;;;;;;5006068;28;20033;-75
2022/04/26 16:40:44;;;;;;;2.47;1.10;;;15.50;99.90;;;;;;5000174;28;20046;-75
2022/04/26 16:43:11;;;;;;;5.63;1.52;;;15.60;99.90;;;;;;5005705;28;20026;-75
2022/04/26 16:45:36;;;;;;;2.13;1.10;;;15.60;99.90;;;;;;5004554;28;20048;-75
2022/04/26 16:48:02;;;;;;;14.25;3.40;;;15.50;99.90;;;;;;5006887;28;20112;-75
2022/04/26 16:50:28;;;;;;;4.93;1.40;;;15.30;99.90;;;;;;5007141;28;20051;-75
2022/04/26 16:52:54;;;;;;;2.15;1.00;;;15.10;99.90;;;;;;5004647;28;20034;-75
2022/04/26 16:55:21;;;;;;;3.40;1.20;;;15.10;99.90;;;;;;4996828;28;20097;-75
2022/04/26 16:57:47;;;;;;;2.05;1.05;;;15.00;99.90;;;;;;5002328;28;20064;-75
2022/04/26 17:00:14;;;;;;;3.53;1.58;;;15.10;99.90;;;;;;5006966;28;21288;-75
2022/04/26 17:02:40;;;;;;;1.77;1.10;;;15.10;99.90;;;;;;5005530;28;20041;-75
2022/04/26 17:05:06;;;;;;;5.07;1.20;;;15.00;99.90;;;;;;5007172;28;20590;-75
2022/04/26 17:07:32;;;;;;;2.63;1.17;;;15.00;99.90;;;;;;5006102;28;20054;-75